createdAt,value
2019-05-21T00:00:02.709Z,89.09
2019-05-21T00:01:02.673Z,89.50
2019-05-21T00:02:02.664Z,89.70
2019-05-21T00:03:02.693Z,89.59
2019-05-21T00:04:02.686Z,89.90
2019-05-21T00:05:02.626Z,90.00
2019-05-21T00:06:02.619Z,90.20
2019-05-21T00:07:02.671Z,89.59
2019-05-21T00:08:02.610Z,89.90
2019-05-21T00:09:02.593Z,90.11
2019-05-21T00:10:02.605Z,89.70
2019-05-21T00:11:02.565Z,90.11
2019-05-21T00:12:03.021Z,89.90
2019-05-21T00:13:02.544Z,89.59
2019-05-21T00:14:02.580Z,89.80
2019-05-21T00:15:02.522Z,89.70
2019-05-21T00:16:02.521Z,89.70
2019-05-21T00:17:02.503Z,89.80
2019-05-21T00:18:02.487Z,89.70
2019-05-21T00:19:02.472Z,89.90
2019-05-21T00:20:02.518Z,90.00
2019-05-21T00:21:02.454Z,90.00
2019-05-21T00:22:02.480Z,89.29
2019-05-21T00:23:02.440Z,89.59
2019-05-21T00:24:02.421Z,89.70
2019-05-21T00:25:02.445Z,89.50
2019-05-21T00:26:02.419Z,89.80
2019-05-21T00:27:02.421Z,89.50
2019-05-21T00:28:02.373Z,89.80
2019-05-21T00:29:02.366Z,89.90
2019-05-21T00:30:02.353Z,89.90
2019-05-21T00:31:02.348Z,89.50
2019-05-21T00:32:02.357Z,89.90
2019-05-21T00:33:02.340Z,89.80
2019-05-21T00:34:02.307Z,89.90
2019-05-21T00:35:02.319Z,89.90
2019-05-21T00:36:02.286Z,89.59
2019-05-21T00:37:02.278Z,89.70
2019-05-21T00:38:02.310Z,89.59
2019-05-21T00:39:02.259Z,89.59
2019-05-21T00:40:02.260Z,89.90
2019-05-21T00:41:02.286Z,89.39
2019-05-21T00:42:02.264Z,89.70
2019-05-21T00:43:02.213Z,89.90
2019-05-21T00:44:02.201Z,89.80
2019-05-21T00:45:02.209Z,89.90
2019-05-21T00:46:02.178Z,90.41
2019-05-21T00:47:02.298Z,90.20
2019-05-21T00:48:05.574Z,91.06
2019-05-21T00:49:02.204Z,90.51
2019-05-21T00:50:02.200Z,90.96
2019-05-21T00:51:02.158Z,90.81
2019-05-21T00:52:08.252Z,90.66
2019-05-21T00:53:03.099Z,90.81
2019-05-21T00:54:02.094Z,90.66
2019-05-21T00:55:02.076Z,90.71
2019-05-21T00:56:02.088Z,90.71
2019-05-21T00:57:02.056Z,91.02
2019-05-21T00:58:02.077Z,91.02
2019-05-21T00:59:02.039Z,90.66
2019-05-21T01:00:02.138Z,90.31
2019-05-21T01:01:02.027Z,90.41
2019-05-21T01:02:02.161Z,90.11
2019-05-21T01:03:01.992Z,89.50
2019-05-21T01:04:02.010Z,90.00
2019-05-21T01:05:01.969Z,89.94
2019-05-21T01:06:01.954Z,89.84
2019-05-21T01:07:02.105Z,90.45
2019-05-21T01:08:01.930Z,90.35
2019-05-21T01:09:01.928Z,90.66
2019-05-21T01:10:01.999Z,90.96
2019-05-21T01:11:01.901Z,90.86
2019-05-21T01:12:01.952Z,90.75
2019-05-21T01:13:01.891Z,90.96
2019-05-21T01:14:01.887Z,91.06
2019-05-21T01:15:01.859Z,90.66
2019-05-21T01:16:01.873Z,90.20
2019-05-21T01:17:01.836Z,89.90
2019-05-21T01:18:01.839Z,90.20
2019-05-21T01:19:01.809Z,89.84
2019-05-21T01:20:01.802Z,90.14
2019-05-21T01:21:01.796Z,89.94
2019-05-21T01:22:01.807Z,89.94
2019-05-21T01:23:01.766Z,90.05
2019-05-21T01:24:01.785Z,90.05
2019-05-21T01:25:01.747Z,91.06
2019-05-21T01:26:01.735Z,91.06
2019-05-21T01:27:01.734Z,91.16
2019-05-21T01:28:01.756Z,91.06
2019-05-21T01:29:01.735Z,89.94
2019-05-21T01:30:02.159Z,90.14
2019-05-21T01:31:01.677Z,90.35
2019-05-21T01:32:01.672Z,89.94
2019-05-21T01:33:01.666Z,90.35
2019-05-21T01:34:01.644Z,90.31
2019-05-21T01:35:16.022Z,90.45
2019-05-21T01:36:02.623Z,90.14
2019-05-21T01:37:01.610Z,89.64
2019-05-21T01:38:01.606Z,90.35
2019-05-21T01:39:01.598Z,90.14
2019-05-21T01:40:01.597Z,90.35
2019-05-21T01:41:01.596Z,90.25
2019-05-21T01:42:01.556Z,90.66
2019-05-21T01:43:03.457Z,90.35
2019-05-21T01:44:01.578Z,90.14
2019-05-21T01:45:01.631Z,89.64
2019-05-21T01:46:01.532Z,89.84
2019-05-21T01:47:01.500Z,89.64
2019-05-21T01:48:01.519Z,90.14
2019-05-21T01:49:01.477Z,90.25
2019-05-21T01:50:01.477Z,89.94
2019-05-21T01:51:01.466Z,89.64
2019-05-21T01:52:01.458Z,89.43
2019-05-21T01:53:01.460Z,90.05
2019-05-21T01:54:01.427Z,89.94
2019-05-21T01:55:01.412Z,89.64
2019-05-21T01:56:01.401Z,89.54
2019-05-21T01:57:01.417Z,89.33
2019-05-21T01:58:01.394Z,89.64
2019-05-21T01:59:01.403Z,89.74
2019-05-21T02:00:01.357Z,89.64
2019-05-21T02:01:01.582Z,90.05
2019-05-21T02:02:01.333Z,90.14
2019-05-21T02:03:01.344Z,89.94
2019-05-21T02:04:01.311Z,89.33
2019-05-21T02:05:01.335Z,89.94
2019-05-21T02:06:01.291Z,89.74
2019-05-21T02:07:01.282Z,89.84
2019-05-21T02:08:01.267Z,89.64
2019-05-21T02:09:01.280Z,89.43
2019-05-21T02:10:01.252Z,89.43
2019-05-21T02:11:01.233Z,89.94
2019-05-21T02:12:01.285Z,89.33
2019-05-21T02:13:01.212Z,89.54
2019-05-21T02:14:01.201Z,89.74
2019-05-21T02:15:01.210Z,89.33
2019-05-21T02:16:01.180Z,89.54
2019-05-21T02:17:01.170Z,89.74
2019-05-21T02:18:01.211Z,89.58
2019-05-21T02:19:01.153Z,89.74
2019-05-21T02:20:01.143Z,89.84
2019-05-21T02:21:01.137Z,90.14
2019-05-21T02:22:01.112Z,89.84
2019-05-21T02:23:01.104Z,89.64
2019-05-21T02:24:01.135Z,89.74
2019-05-21T02:25:01.104Z,89.54
2019-05-21T02:26:01.084Z,89.84
2019-05-21T02:27:01.059Z,89.74
2019-05-21T02:28:01.046Z,89.74
2019-05-21T02:29:01.049Z,89.84
2019-05-21T02:30:01.029Z,89.33
2019-05-21T02:31:01.028Z,89.54
2019-05-21T02:32:01.041Z,89.43
2019-05-21T02:33:00.991Z,90.05
2019-05-21T02:34:00.983Z,90.05
2019-05-21T02:35:00.972Z,89.64
2019-05-21T02:36:00.968Z,89.54
2019-05-21T02:37:00.963Z,90.25
2019-05-21T02:38:00.958Z,89.54
2019-05-21T02:39:00.929Z,89.33
2019-05-21T02:40:00.925Z,89.54
2019-05-21T02:41:00.910Z,89.23
2019-05-21T02:42:00.912Z,89.54
2019-05-21T02:43:00.883Z,89.74
2019-05-21T02:44:00.870Z,90.14
2019-05-21T02:45:00.882Z,89.64
2019-05-21T02:46:00.850Z,89.74
2019-05-21T02:47:00.837Z,89.54
2019-05-21T02:48:00.844Z,89.94
2019-05-21T02:49:00.830Z,90.05
2019-05-21T02:50:00.810Z,89.54
2019-05-21T02:51:00.794Z,89.43
2019-05-21T02:52:00.835Z,89.43
2019-05-21T02:53:00.769Z,89.43
2019-05-21T02:54:00.782Z,89.43
2019-05-21T02:55:00.752Z,89.54
2019-05-21T02:56:00.735Z,89.64
2019-05-21T02:57:00.758Z,89.33
2019-05-21T02:58:00.733Z,89.64
2019-05-21T02:59:00.700Z,89.23
2019-05-21T03:00:00.706Z,89.64
2019-05-21T03:01:00.681Z,89.23
2019-05-21T03:02:00.770Z,89.23
2019-05-21T03:03:00.659Z,88.82
2019-05-21T03:04:00.679Z,88.58
2019-05-21T03:05:00.652Z,88.93
2019-05-21T03:06:12.940Z,88.28
2019-05-21T03:07:01.613Z,88.58
2019-05-21T03:08:00.607Z,88.42
2019-05-21T03:09:00.586Z,88.73
2019-05-21T03:10:00.601Z,88.62
2019-05-21T03:11:00.610Z,88.62
2019-05-21T03:12:00.573Z,88.52
2019-05-21T03:13:00.547Z,88.32
2019-05-21T03:14:00.604Z,88.58
2019-05-21T03:15:00.527Z,88.32
2019-05-21T03:16:00.522Z,88.62
2019-05-21T03:17:00.562Z,88.73
2019-05-21T03:18:00.491Z,88.68
2019-05-21T03:19:00.569Z,88.78
2019-05-21T03:20:00.501Z,88.82
2019-05-21T03:21:00.531Z,89.03
2019-05-21T03:22:00.455Z,88.62
2019-05-21T03:23:00.434Z,88.73
2019-05-21T03:24:00.419Z,88.73
2019-05-21T03:25:02.304Z,88.73
2019-05-21T03:26:00.398Z,88.21
2019-05-21T03:27:00.396Z,88.62
2019-05-21T03:28:00.389Z,88.62
2019-05-21T03:29:00.365Z,88.62
2019-05-21T03:30:00.356Z,88.62
2019-05-21T03:31:00.383Z,88.62
2019-05-21T03:32:00.332Z,88.42
2019-05-21T03:33:00.338Z,88.73
2019-05-21T03:34:00.311Z,88.82
2019-05-21T03:35:00.308Z,88.82
2019-05-21T03:36:00.292Z,88.73
2019-05-21T03:37:00.295Z,88.73
2019-05-21T03:38:00.263Z,88.73
2019-05-21T03:39:00.273Z,88.82
2019-05-21T03:40:00.242Z,88.82
2019-05-21T03:41:00.239Z,88.82
2019-05-21T03:42:00.217Z,88.62
2019-05-21T03:43:00.229Z,88.32
2019-05-21T03:44:00.209Z,88.73
2019-05-21T03:45:01.076Z,88.42
2019-05-21T03:46:00.174Z,88.52
2019-05-21T03:47:00.168Z,88.52
2019-05-21T03:48:00.152Z,88.73
2019-05-21T03:49:00.170Z,88.12
2019-05-21T03:50:00.167Z,88.52
2019-05-21T03:51:00.131Z,88.62
2019-05-21T03:52:00.107Z,88.62
2019-05-21T03:53:00.096Z,88.87
2019-05-21T03:54:00.085Z,88.73
2019-05-21T03:55:03.084Z,88.73
2019-05-21T03:56:00.080Z,88.73
2019-05-21T03:57:00.052Z,88.62
2019-05-21T03:58:00.063Z,88.73
2019-05-21T03:59:00.030Z,88.62
2019-05-21T04:00:00.021Z,88.62
2019-05-21T04:01:00.037Z,88.26
2019-05-21T04:02:00.011Z,88.46
2019-05-21T04:02:59.987Z,88.73
2019-05-21T04:03:59.986Z,88.76
2019-05-21T04:04:59.966Z,88.67
2019-05-21T04:05:59.953Z,88.62
2019-05-21T04:06:59.986Z,88.67
2019-05-21T04:07:59.933Z,88.67
2019-05-21T04:08:59.926Z,88.93
2019-05-21T04:09:59.909Z,88.97
2019-05-21T04:10:59.901Z,89.13
2019-05-21T04:11:59.907Z,89.78
2019-05-21T04:12:59.894Z,89.03
2019-05-21T04:13:59.864Z,89.74
2019-05-21T04:14:59.856Z,89.88
2019-05-21T04:15:59.841Z,89.64
2019-05-21T04:16:59.829Z,89.58
2019-05-21T04:17:59.833Z,89.58
2019-05-21T04:18:59.843Z,89.13
2019-05-21T04:19:59.800Z,89.37
2019-05-21T04:20:59.792Z,89.74
2019-05-21T04:21:59.776Z,89.37
2019-05-21T04:22:59.784Z,89.68
2019-05-21T04:23:59.759Z,89.68
2019-05-21T04:24:59.791Z,89.68
2019-05-21T04:25:59.731Z,89.28
2019-05-21T04:26:59.739Z,89.48
2019-05-21T04:27:59.711Z,90.09
2019-05-21T04:28:59.713Z,90.19
2019-05-21T04:29:59.686Z,90.09
2019-05-21T04:30:59.714Z,89.88
2019-05-21T04:31:59.671Z,89.78
2019-05-21T04:32:59.657Z,89.58
2019-05-21T04:33:59.670Z,89.37
2019-05-21T04:34:59.665Z,89.58
2019-05-21T04:35:59.619Z,89.78
2019-05-21T04:37:10.108Z,89.88
2019-05-21T04:38:00.594Z,89.78
2019-05-21T04:38:59.601Z,90.13
2019-05-21T04:39:59.590Z,89.98
2019-05-21T04:40:59.567Z,89.62
2019-05-21T04:41:59.552Z,89.72
2019-05-21T04:43:02.207Z,89.83
2019-05-21T04:43:59.531Z,89.62
2019-05-21T04:44:59.517Z,89.83
2019-05-21T04:45:59.522Z,90.09
2019-05-21T04:46:59.496Z,89.68
2019-05-21T04:47:59.484Z,89.68
2019-05-21T04:48:59.518Z,90.23
2019-05-21T04:49:59.463Z,89.98
2019-05-21T04:50:59.450Z,89.68
2019-05-21T04:51:59.469Z,89.58
2019-05-21T04:52:59.440Z,89.17
2019-05-21T04:53:59.419Z,89.31
2019-05-21T04:54:59.433Z,89.42
2019-05-21T04:55:59.395Z,89.07
2019-05-21T04:56:59.385Z,89.37
2019-05-21T04:57:59.396Z,89.07
2019-05-21T04:58:59.366Z,89.07
2019-05-21T04:59:59.350Z,89.07
2019-05-21T05:00:59.350Z,88.67
2019-05-21T05:01:59.482Z,88.87
2019-05-21T05:02:59.316Z,89.28
2019-05-21T05:03:59.334Z,89.37
2019-05-21T05:04:59.311Z,89.98
2019-05-21T05:05:59.303Z,89.78
2019-05-21T05:06:59.272Z,89.48
2019-05-21T05:07:59.264Z,89.58
2019-05-21T05:08:59.261Z,89.68
2019-05-21T05:09:59.243Z,90.09
2019-05-21T05:10:59.227Z,89.98
2019-05-21T05:11:59.238Z,89.88
2019-05-21T05:12:59.209Z,90.19
2019-05-21T05:13:59.206Z,89.88
2019-05-21T05:14:59.195Z,90.09
2019-05-21T05:15:59.182Z,89.98
2019-05-21T05:16:59.189Z,89.98
2019-05-21T05:17:59.154Z,89.88
2019-05-21T05:18:59.143Z,89.88
2019-05-21T05:19:59.145Z,89.68
2019-05-21T05:20:59.127Z,89.68
2019-05-21T05:21:59.120Z,89.78
2019-05-21T05:22:59.098Z,90.19
2019-05-21T05:23:59.102Z,89.68
2019-05-21T05:24:59.081Z,89.78
2019-05-21T05:25:59.080Z,89.54
2019-05-21T05:26:59.058Z,89.64
2019-05-21T05:27:59.057Z,89.54
2019-05-21T05:28:59.032Z,89.64
2019-05-21T05:29:59.016Z,89.74
2019-05-21T05:30:59.019Z,89.74
2019-05-21T05:31:59.019Z,89.43
2019-05-21T05:32:58.991Z,89.94
2019-05-21T05:33:58.976Z,89.33
2019-05-21T05:34:58.964Z,89.13
2019-05-21T05:35:58.951Z,89.64
2019-05-21T05:36:58.950Z,88.73
2019-05-21T05:37:58.973Z,88.52
2019-05-21T05:38:58.920Z,89.23
2019-05-21T05:39:58.909Z,88.82
2019-05-21T05:40:58.899Z,88.62
2019-05-21T05:41:58.886Z,88.73
2019-05-21T05:42:58.888Z,88.87
2019-05-21T05:43:58.869Z,88.46
2019-05-21T05:44:58.852Z,88.87
2019-05-21T05:45:58.881Z,88.97
2019-05-21T05:46:58.839Z,88.87
2019-05-21T05:47:58.837Z,88.87
2019-05-21T05:49:01.681Z,88.76
2019-05-21T05:49:58.816Z,88.62
2019-05-21T05:50:58.784Z,88.82
2019-05-21T05:51:58.777Z,88.16
2019-05-21T05:52:58.779Z,88.12
2019-05-21T05:53:58.766Z,88.67
2019-05-21T05:54:58.746Z,88.26
2019-05-21T05:55:58.741Z,88.42
2019-05-21T05:56:58.727Z,88.16
2019-05-21T05:57:58.714Z,87.85
2019-05-21T05:58:58.699Z,87.85
2019-05-21T05:59:58.697Z,87.75
2019-05-21T06:00:58.719Z,88.26
2019-05-21T06:01:58.686Z,88.16
2019-05-21T06:02:58.652Z,87.85
2019-05-21T06:03:58.642Z,88.16
2019-05-21T06:04:58.676Z,87.85
2019-05-21T06:05:58.624Z,87.85
2019-05-21T06:06:58.661Z,87.79
2019-05-21T06:08:00.204Z,88.10
2019-05-21T06:08:58.589Z,88.20
2019-05-21T06:09:58.576Z,87.75
2019-05-21T06:10:58.581Z,88.20
2019-05-21T06:11:58.551Z,87.95
2019-05-21T06:12:58.551Z,87.79
2019-05-21T06:13:58.563Z,88.30
2019-05-21T06:14:58.520Z,88.36
2019-05-21T06:15:58.511Z,87.95
2019-05-21T06:16:58.531Z,88.50
2019-05-21T06:17:58.491Z,88.30
2019-05-21T06:18:58.479Z,88.30
2019-05-21T06:19:58.483Z,87.99
2019-05-21T06:20:58.474Z,87.79
2019-05-21T06:21:58.458Z,87.29
2019-05-21T06:22:58.437Z,88.40
2019-05-21T06:23:58.420Z,87.79
2019-05-21T06:24:58.410Z,87.89
2019-05-21T06:25:58.410Z,88.20
2019-05-21T06:26:58.404Z,88.10
2019-05-21T06:27:58.477Z,87.75
2019-05-21T06:28:58.375Z,88.10
2019-05-21T06:29:58.357Z,87.75
2019-05-21T06:30:58.364Z,87.75
2019-05-21T06:31:58.335Z,87.75
2019-05-21T06:32:58.459Z,87.65
2019-05-21T06:33:58.313Z,88.26
2019-05-21T06:34:58.309Z,88.36
2019-05-21T06:35:58.294Z,87.65
2019-05-21T06:36:58.292Z,87.75
2019-05-21T06:37:58.273Z,87.95
2019-05-21T06:38:58.256Z,88.20
2019-05-21T06:39:58.268Z,88.06
2019-05-21T06:40:58.236Z,87.69
2019-05-21T06:41:58.237Z,87.95
2019-05-21T06:42:58.213Z,88.40
2019-05-21T06:43:58.197Z,88.30
2019-05-21T06:44:58.218Z,87.99
2019-05-21T06:45:58.173Z,87.99
2019-05-21T06:46:58.160Z,87.99
2019-05-21T06:47:58.165Z,88.50
2019-05-21T06:48:58.140Z,88.10
2019-05-21T06:49:58.267Z,87.99
2019-05-21T06:50:58.959Z,87.79
2019-05-21T06:51:58.127Z,87.79
2019-05-21T06:52:58.097Z,88.20
2019-05-21T06:53:58.106Z,88.40
2019-05-21T06:54:58.074Z,88.50
2019-05-21T06:55:58.065Z,88.06
2019-05-21T06:56:58.055Z,88.40
2019-05-21T06:57:58.048Z,88.10
2019-05-21T06:58:58.044Z,88.30
2019-05-21T06:59:58.037Z,88.10
2019-05-21T07:00:58.008Z,87.89
2019-05-21T07:01:58.007Z,88.06
2019-05-21T07:02:58.000Z,87.69
2019-05-21T07:03:57.981Z,87.85
2019-05-21T07:04:57.992Z,88.16
2019-05-21T07:05:59.423Z,88.20
2019-05-21T07:06:57.950Z,88.16
2019-05-21T07:07:57.947Z,88.40
2019-05-21T07:08:57.936Z,88.50
2019-05-21T07:09:57.961Z,88.40
2019-05-21T07:10:57.920Z,88.30
2019-05-21T07:11:57.902Z,89.22
2019-05-21T07:12:57.876Z,88.30
2019-05-21T07:13:57.881Z,89.01
2019-05-21T07:14:57.877Z,88.91
2019-05-21T07:15:57.928Z,88.71
2019-05-21T07:16:57.868Z,88.60
2019-05-21T07:17:57.844Z,88.50
2019-05-21T07:18:57.812Z,88.91
2019-05-21T07:19:57.825Z,89.11
2019-05-21T07:20:57.785Z,89.92
2019-05-21T07:22:11.440Z,89.72
2019-05-21T07:22:58.892Z,89.62
2019-05-21T07:23:57.751Z,89.62
2019-05-21T07:24:57.754Z,89.52
2019-05-21T07:25:57.728Z,89.31
2019-05-21T07:26:57.718Z,89.72
2019-05-21T07:27:57.938Z,89.83
2019-05-21T07:28:57.927Z,89.42
2019-05-21T07:29:57.683Z,89.83
2019-05-21T07:30:57.684Z,90.23
2019-05-21T07:31:57.662Z,89.83
2019-05-21T07:32:57.895Z,90.03
2019-05-21T07:33:57.668Z,89.92
2019-05-21T07:34:57.639Z,89.92
2019-05-21T07:35:57.629Z,90.33
2019-05-21T07:36:57.608Z,90.94
2019-05-21T07:37:57.597Z,90.84
2019-05-21T07:38:57.594Z,91.55
2019-05-21T07:39:57.582Z,91.55
2019-05-21T07:40:57.578Z,91.55
2019-05-21T07:41:57.589Z,91.86
2019-05-21T07:42:57.556Z,91.96
2019-05-21T07:43:57.540Z,91.96
2019-05-21T07:44:57.526Z,91.75
2019-05-21T07:45:57.509Z,91.75
2019-05-21T07:46:57.509Z,92.06
2019-05-21T07:47:57.501Z,91.86
2019-05-21T07:48:57.492Z,91.96
2019-05-21T07:49:57.479Z,91.14
2019-05-21T07:50:57.457Z,91.96
2019-05-21T07:51:57.447Z,91.86
2019-05-21T07:52:57.433Z,91.96
2019-05-21T07:53:57.420Z,91.96
2019-05-21T07:54:57.412Z,91.75
2019-05-21T07:55:57.422Z,91.96
2019-05-21T07:56:57.385Z,91.96
2019-05-21T07:57:57.378Z,92.26
2019-05-21T07:58:57.399Z,91.86
2019-05-21T07:59:57.365Z,91.96
2019-05-21T08:01:01.037Z,91.86
2019-05-21T08:01:57.343Z,91.86
2019-05-21T08:02:57.366Z,91.96
2019-05-21T08:03:57.329Z,91.86
2019-05-21T08:04:57.308Z,91.96
2019-05-21T08:05:57.319Z,91.96
2019-05-21T08:06:57.293Z,92.06
2019-05-21T08:07:57.261Z,92.06
2019-05-21T08:09:12.729Z,92.06
2019-05-21T08:09:58.298Z,91.86
2019-05-21T08:10:57.267Z,92.06
2019-05-21T08:11:57.274Z,92.26
2019-05-21T08:12:57.214Z,91.14
2019-05-21T08:13:57.202Z,91.86
2019-05-21T08:14:57.239Z,91.96
2019-05-21T08:15:57.201Z,92.06
2019-05-21T08:16:57.167Z,92.06
2019-05-21T08:17:57.169Z,91.75
2019-05-21T08:18:57.140Z,92.06
2019-05-21T08:20:08.614Z,91.96
2019-05-21T08:20:58.120Z,92.26
2019-05-21T08:21:57.108Z,91.86
2019-05-21T08:22:57.097Z,91.96
2019-05-21T08:23:57.097Z,92.16
2019-05-21T08:24:57.086Z,92.16
2019-05-21T08:25:57.066Z,92.36
2019-05-21T08:26:57.071Z,92.47
2019-05-21T08:27:57.047Z,92.16
2019-05-21T08:28:57.037Z,93.07
2019-05-21T08:29:57.049Z,92.72
2019-05-21T08:30:57.031Z,92.77
2019-05-21T08:31:57.032Z,92.83
2019-05-21T08:32:57.026Z,92.93
2019-05-21T08:33:56.977Z,92.87
2019-05-21T08:34:56.971Z,92.97
2019-05-21T08:35:56.969Z,92.87
2019-05-21T08:36:56.965Z,93.03
2019-05-21T08:37:56.954Z,93.18
2019-05-21T08:38:56.962Z,93.07
2019-05-21T08:39:56.921Z,92.67
2019-05-21T08:40:56.937Z,92.93
2019-05-21T08:41:56.901Z,92.57
2019-05-21T08:42:56.874Z,93.18
2019-05-21T08:43:56.978Z,92.26
2019-05-21T08:44:56.910Z,92.26
2019-05-21T08:45:56.859Z,92.32
2019-05-21T08:46:56.848Z,92.12
2019-05-21T08:47:56.845Z,92.42
2019-05-21T08:48:56.815Z,91.91
2019-05-21T08:49:56.819Z,92.72
2019-05-21T08:50:56.806Z,92.72
2019-05-21T08:51:56.791Z,92.97
2019-05-21T08:52:56.764Z,93.18
2019-05-21T08:53:56.754Z,92.77
2019-05-21T08:54:56.817Z,92.97
2019-05-21T08:55:56.763Z,92.67
2019-05-21T08:56:56.759Z,92.97
2019-05-21T08:58:06.947Z,93.07
2019-05-21T08:58:57.703Z,92.93
2019-05-21T08:59:56.688Z,92.97
2019-05-21T09:00:56.701Z,92.52
2019-05-21T09:01:59.137Z,93.03
2019-05-21T09:02:56.655Z,92.83
2019-05-21T09:03:56.669Z,93.03
2019-05-21T09:04:56.635Z,92.63
2019-05-21T09:05:56.660Z,92.83
2019-05-21T09:06:56.640Z,92.93
2019-05-21T09:07:56.619Z,93.03
2019-05-21T09:08:56.606Z,93.03
2019-05-21T09:09:56.596Z,93.03
2019-05-21T09:10:56.595Z,92.83
2019-05-21T09:11:56.555Z,92.63
2019-05-21T09:12:56.558Z,92.83
2019-05-21T09:13:56.588Z,92.93
2019-05-21T09:14:56.531Z,92.72
2019-05-21T09:15:56.513Z,93.03
2019-05-21T09:16:56.530Z,92.63
2019-05-21T09:17:56.534Z,92.72
2019-05-21T09:18:56.483Z,92.79
2019-05-21T09:19:56.467Z,93.19
2019-05-21T09:20:56.515Z,93.13
2019-05-21T09:21:56.450Z,92.72
2019-05-21T09:22:56.461Z,93.13
2019-05-21T09:23:56.422Z,93.03
2019-05-21T09:24:56.409Z,92.68
2019-05-21T09:25:56.398Z,92.83
2019-05-21T09:26:56.389Z,92.68
2019-05-21T09:27:56.402Z,93.03
2019-05-21T09:28:56.376Z,93.54
2019-05-21T09:29:56.380Z,93.44
2019-05-21T09:30:56.346Z,93.24
2019-05-21T09:31:56.360Z,93.44
2019-05-21T09:32:56.321Z,93.19
2019-05-21T09:33:56.321Z,93.03
2019-05-21T09:34:56.299Z,93.24
2019-05-21T09:35:56.290Z,93.40
2019-05-21T09:36:56.280Z,93.74
2019-05-21T09:37:56.415Z,93.60
2019-05-21T09:38:56.253Z,93.80
2019-05-21T09:39:56.264Z,94.05
2019-05-21T09:40:56.233Z,93.49
2019-05-21T09:41:56.221Z,93.44
2019-05-21T09:42:56.225Z,92.83
2019-05-21T09:43:56.206Z,93.64
2019-05-21T09:44:56.205Z,93.40
2019-05-21T09:45:56.175Z,93.49
2019-05-21T09:46:56.164Z,93.40
2019-05-21T09:47:56.182Z,92.28
2019-05-21T09:48:56.313Z,93.19
2019-05-21T09:49:56.143Z,93.09
2019-05-21T09:50:56.174Z,92.99
2019-05-21T09:51:56.111Z,92.68
2019-05-21T09:52:56.113Z,93.49
2019-05-21T09:53:56.090Z,93.40
2019-05-21T09:54:56.104Z,93.60
2019-05-21T09:55:56.073Z,93.40
2019-05-21T09:56:56.117Z,93.35
2019-05-21T09:57:56.044Z,93.25
2019-05-21T09:58:56.034Z,92.54
2019-05-21T09:59:56.036Z,92.64
2019-05-21T10:00:56.013Z,92.74
2019-05-21T10:01:55.999Z,92.64
2019-05-21T10:02:56.004Z,92.64
2019-05-21T10:03:55.976Z,92.64
2019-05-21T10:04:55.968Z,92.84
2019-05-21T10:05:55.990Z,92.94
2019-05-21T10:06:55.947Z,92.84
2019-05-21T10:07:55.931Z,92.94
2019-05-21T10:08:55.945Z,92.90
2019-05-21T10:09:55.911Z,92.84
2019-05-21T10:10:55.902Z,92.64
2019-05-21T10:11:55.939Z,92.94
2019-05-21T10:12:55.879Z,91.83
2019-05-21T10:13:55.881Z,91.93
2019-05-21T10:14:55.869Z,91.93
2019-05-21T10:15:56.933Z,91.89
2019-05-21T10:16:56.835Z,91.78
2019-05-21T10:17:55.821Z,91.78
2019-05-21T10:18:55.810Z,91.44
2019-05-21T10:19:58.836Z,92.09
2019-05-21T10:20:55.810Z,91.28
2019-05-21T10:21:57.137Z,90.77
2019-05-21T10:22:55.765Z,90.16
2019-05-21T10:23:55.758Z,90.97
2019-05-21T10:24:55.765Z,90.57
2019-05-21T10:25:55.735Z,90.77
2019-05-21T10:26:55.755Z,91.17
2019-05-21T10:27:55.715Z,91.28
2019-05-21T10:28:55.700Z,91.28
2019-05-21T10:29:55.698Z,90.73
2019-05-21T10:30:55.689Z,90.57
2019-05-21T10:31:55.666Z,90.88
2019-05-21T10:32:55.672Z,90.53
2019-05-21T10:33:55.656Z,89.72
2019-05-21T10:34:55.632Z,89.55
2019-05-21T10:35:55.637Z,89.72
2019-05-21T10:36:55.610Z,90.12
2019-05-21T10:37:55.705Z,89.81
2019-05-21T10:38:55.601Z,89.61
2019-05-21T10:39:55.578Z,89.21
2019-05-21T10:40:55.594Z,89.31
2019-05-21T10:41:55.557Z,89.21
2019-05-21T10:42:55.542Z,89.51
2019-05-21T10:43:55.534Z,89.41
2019-05-21T10:44:55.558Z,90.02
2019-05-21T10:45:55.523Z,89.51
2019-05-21T10:46:55.513Z,88.60
2019-05-21T10:47:55.487Z,88.80
2019-05-21T10:48:55.479Z,88.60
2019-05-21T10:49:55.466Z,88.40
2019-05-21T10:50:55.493Z,88.66
2019-05-21T10:51:55.456Z,88.70
2019-05-21T10:52:55.454Z,88.56
2019-05-21T10:53:55.423Z,88.66
2019-05-21T10:54:55.411Z,87.48
2019-05-21T10:55:55.401Z,88.05
2019-05-21T10:56:55.396Z,88.66
2019-05-21T10:57:55.377Z,88.56
2019-05-21T10:58:55.394Z,88.96
2019-05-21T10:59:55.359Z,88.11
2019-05-21T11:00:55.476Z,88.01
2019-05-21T11:01:55.337Z,87.40
2019-05-21T11:02:55.341Z,87.45
2019-05-21T11:03:55.314Z,87.14
2019-05-21T11:04:55.317Z,86.19
2019-05-21T11:06:09.050Z,87.00
2019-05-21T11:06:56.279Z,86.49
2019-05-21T11:07:55.266Z,86.08
2019-05-21T11:08:55.288Z,86.90
2019-05-21T11:09:55.311Z,86.49
2019-05-21T11:10:55.258Z,86.59
2019-05-21T11:11:55.222Z,86.19
2019-05-21T11:12:55.214Z,85.88
2019-05-21T11:13:55.200Z,85.64
2019-05-21T11:14:55.191Z,86.19
2019-05-21T11:15:55.218Z,86.49
2019-05-21T11:16:55.194Z,86.49
2019-05-21T11:18:09.796Z,86.08
2019-05-21T11:18:56.143Z,85.78
2019-05-21T11:19:55.139Z,86.19
2019-05-21T11:20:55.136Z,86.29
2019-05-21T11:21:55.142Z,86.69
2019-05-21T11:22:58.180Z,86.29
2019-05-21T11:23:55.154Z,86.49
2019-05-21T11:24:55.082Z,85.38
2019-05-21T11:25:55.086Z,85.78
2019-05-21T11:26:55.059Z,85.38
2019-05-21T11:27:55.062Z,84.67
2019-05-21T11:28:55.055Z,84.97
2019-05-21T11:29:55.025Z,85.78
2019-05-21T11:30:55.012Z,85.07
2019-05-21T11:31:57.435Z,86.19
2019-05-21T11:32:54.992Z,86.08
2019-05-21T11:33:54.986Z,85.27
2019-05-21T11:34:54.975Z,85.88
2019-05-21T11:35:54.972Z,85.17
2019-05-21T11:36:54.950Z,85.68
2019-05-21T11:37:54.947Z,85.38
2019-05-21T11:38:54.927Z,85.78
2019-05-21T11:39:54.927Z,85.68
2019-05-21T11:40:54.951Z,86.35
2019-05-21T11:41:54.892Z,85.24
2019-05-21T11:42:54.882Z,83.86
2019-05-21T11:43:54.870Z,85.74
2019-05-21T11:44:54.867Z,85.24
2019-05-21T11:45:54.899Z,85.64
2019-05-21T11:46:54.836Z,85.74
2019-05-21T11:47:55.032Z,85.44
2019-05-21T11:48:54.819Z,83.68
2019-05-21T11:49:54.809Z,85.10
2019-05-21T11:50:54.795Z,85.70
2019-05-21T11:51:54.819Z,85.50
2019-05-21T11:52:54.776Z,85.50
2019-05-21T11:53:54.765Z,84.48
2019-05-21T11:54:55.991Z,85.19
2019-05-21T11:55:54.741Z,84.69
2019-05-21T11:56:54.734Z,85.16
2019-05-21T11:57:54.740Z,84.65
2019-05-21T11:58:54.737Z,84.65
2019-05-21T11:59:54.693Z,83.44
2019-05-21T12:00:54.692Z,83.74
2019-05-21T12:01:54.676Z,83.84
2019-05-21T12:02:54.661Z,83.33
2019-05-21T12:03:54.653Z,83.54
2019-05-21T12:04:54.719Z,82.32
2019-05-21T12:05:54.672Z,82.83
2019-05-21T12:06:54.619Z,82.53
2019-05-21T12:07:54.607Z,82.83
2019-05-21T12:08:57.156Z,82.62
2019-05-21T12:09:54.587Z,83.44
2019-05-21T12:10:54.586Z,82.32
2019-05-21T12:11:54.575Z,81.51
2019-05-21T12:12:54.553Z,82.42
2019-05-21T12:13:54.540Z,81.71
2019-05-21T12:14:54.539Z,82.59
2019-05-21T12:15:54.535Z,82.49
2019-05-21T12:16:54.508Z,82.08
2019-05-21T12:17:54.580Z,80.46
2019-05-21T12:19:02.081Z,81.57
2019-05-21T12:19:54.477Z,80.66
2019-05-21T12:20:54.477Z,80.97
2019-05-21T12:21:54.453Z,81.37
2019-05-21T12:22:54.463Z,81.27
2019-05-21T12:23:54.441Z,81.03
2019-05-21T12:24:54.420Z,81.64
2019-05-21T12:25:54.431Z,83.26
2019-05-21T12:26:54.421Z,81.03
2019-05-21T12:27:54.423Z,80.22
2019-05-21T12:28:54.379Z,80.43
2019-05-21T12:29:54.364Z,79.72
2019-05-21T12:30:54.466Z,79.11
2019-05-21T12:32:03.387Z,78.71
2019-05-21T12:32:54.340Z,80.02
2019-05-21T12:33:54.319Z,80.02
2019-05-21T12:34:54.316Z,78.41
2019-05-21T12:35:54.300Z,80.49
2019-05-21T12:36:54.302Z,79.82
2019-05-21T12:37:54.339Z,79.41
2019-05-21T12:39:13.813Z,80.22
2019-05-21T12:41:08.566Z,79.21
2019-05-21T12:43:21.151Z,79.52
2019-05-21T12:44:21.137Z,79.32
2019-05-21T12:45:21.168Z,78.75
2019-05-21T12:46:21.123Z,78.95
2019-05-21T12:47:21.101Z,80.66
2019-05-21T12:48:21.099Z,80.77
2019-05-21T12:49:21.091Z,81.41
2019-05-21T12:50:21.082Z,81.62
2019-05-21T12:51:21.059Z,80.71
2019-05-21T12:52:21.050Z,80.80
2019-05-21T12:53:21.038Z,81.51
2019-05-21T12:54:21.022Z,81.62